Погода Намцына 2 недели

Республика Саха, Россия

19 июля-01 августа
  • 19июля
    Сегодня
    +12°
    +25°
    Облачно с прояснениями
    ВремяПогодаТемператураВлажностьДавлениеВетер, м/сВероятность осадков
    00:00Облачно с прояснениями+15°C95 %746 мм1.3 м/с2 %
    03:00Облачно с прояснениями+13°C96 %746 мм1.4 м/с2 %
    06:00Облачно с прояснениями+16°C88 %746 мм1.3 м/с2 %
    09:00Облачно с прояснениями+19°C66 %746 мм0.6 м/с2 %
    12:00Облачно с прояснениями+22°C53 %745 мм0.9 м/с2 %
    15:00Облачно с прояснениями+23°C46 %744 мм1.6 м/с2 %
    18:00Небольшая облачность+24°C43 %744 мм1.7 м/с2 %
    21:00Облачно с прояснениями+19°C66 %744 мм2.7 м/с2 %
  • 20июля
    Суббота
    +14°
    +26°
    Небольшая облачность
    ВремяПогодаТемператураВлажностьДавлениеВетер, м/сВероятность осадков
    00:00Облачно с прояснениями+16°C67 %743 мм2.6 м/с2 %
    03:00Ясно и безоблачно+13°C76 %743 мм2.0 м/с2 %
    06:00Ясно и безоблачно+15°C75 %743 мм2.2 м/с2 %
    09:00Ясно и безоблачно+20°C53 %743 мм1.7 м/с2 %
    12:00Облачно с прояснениями+23°C42 %743 мм2.2 м/с2 %
    15:00Небольшая облачность+25°C40 %742 мм2.0 м/с12 %
    18:00Облачно с прояснениями+26°C46 %743 мм1.8 м/с9 %
    21:00Небольшая облачность+22°C65 %744 мм2.0 м/с2 %
  • 21июля
    Воскресенье
    +14°
    +27°
    Ясно и безоблачно
    ВремяПогодаТемператураВлажностьДавлениеВетер, м/сВероятность осадков
    00:00Облачно с прояснениями+17°C66 %744 мм2.9 м/с2 %
    03:00Ясно и безоблачно+14°C68 %744 мм2.7 м/с2 %
    06:00Ясно и безоблачно+16°C66 %745 мм2.4 м/с2 %
    09:00Ясно и безоблачно+20°C61 %746 мм1.3 м/с2 %
    12:00Ясно и безоблачно+24°C52 %746 мм0.8 м/с2 %
    15:00Ясно и безоблачно+26°C44 %746 мм1.1 м/с2 %
    18:00Ясно и безоблачно+26°C46 %746 мм0.8 м/с2 %
    21:00Ясно и безоблачно+22°C66 %747 мм1.2 м/с2 %
  • 22июля
    Понедельник
    +15°
    +29°
    Практически безоблачно
    ВремяПогодаТемператураВлажностьДавлениеВетер, м/сВероятность осадков
    00:00Небольшая облачность+17°C79 %747 мм1.8 м/с2 %
    03:00Ясно и безоблачно+15°C92 %747 мм0.8 м/с2 %
    06:00Ясно и безоблачно+18°C88 %747 мм1.8 м/с2 %
    09:00Ясно и безоблачно+23°C64 %747 мм2.0 м/с2 %
    12:00Практически безоблачно+26°C38 %746 мм3.1 м/с2 %
    15:00Практически безоблачно+28°C33 %745 мм2.9 м/с2 %
    18:00Облачно с прояснениями+29°C36 %745 мм2.6 м/с2 %
    21:00Облачно с прояснениями+23°C57 %745 мм2.3 м/с2 %
  • 23июля
    Вторник
    +16°
    +30°
    Небольшая облачность
    ВремяПогодаТемператураВлажностьДавлениеВетер, м/сВероятность осадков
    00:00Ясно и безоблачно+18°C69 %746 мм2.8 м/с2 %
    03:00Небольшая облачность+16°C79 %746 мм2.4 м/с2 %
    06:00Ясно и безоблачно+19°C81 %747 мм2.0 м/с2 %
    09:00Ясно и безоблачно+24°C60 %747 мм1.8 м/с2 %
    12:00Ясно и безоблачно+28°C36 %747 мм3.0 м/с2 %
    15:00Небольшая облачность+30°C29 %746 мм1.6 м/с5 %
    18:00Ясно и безоблачно+30°C42 %747 мм0.2 м/с5 %
    21:00Ясно и безоблачно+24°C49 %747 мм2.4 м/с2 %
Мы используем cookies
Соглашаюсь